createdAt,value
2022-08-21T00:02:22.742Z,95732.16
2022-08-21T00:04:57.001Z,95727.81
2022-08-21T00:07:25.515Z,95727.81
2022-08-21T00:09:52.853Z,95726.66
2022-08-21T00:12:19.685Z,95722.91
2022-08-21T00:14:46.677Z,95718.88
2022-08-21T00:17:13.276Z,95718.72
2022-08-21T00:19:40.662Z,95722.22
2022-08-21T00:22:07.183Z,95717.09
2022-08-21T00:24:33.714Z,95721.97
2022-08-21T00:27:00.257Z,95719.84
2022-08-21T00:29:26.773Z,95723.84
2022-08-21T00:31:54.208Z,95724.56
2022-08-21T00:34:20.798Z,95723.22
2022-08-21T00:36:47.459Z,95714.13
2022-08-21T00:39:13.976Z,95717.88
2022-08-21T00:41:41.041Z,95719.50
2022-08-21T00:44:11.691Z,95720.81
2022-08-21T00:46:39.851Z,95714.50
2022-08-21T00:49:07.704Z,95710.19
2022-08-21T00:51:49.820Z,95716.59
2022-08-21T00:54:19.396Z,95711.16
2022-08-21T00:57:02.806Z,95701.41
2022-08-21T00:59:38.357Z,95714.81
2022-08-21T01:02:08.181Z,95713.91
2022-08-21T01:04:35.235Z,95711.91
2022-08-21T01:07:01.985Z,95718.00
2022-08-21T01:09:28.585Z,95715.91
2022-08-21T01:11:55.453Z,95706.84
2022-08-21T01:14:21.966Z,95718.53
2022-08-21T01:16:52.906Z,95711.53
2022-08-21T01:19:21.882Z,95706.06
2022-08-21T01:21:48.868Z,95706.31
2022-08-21T01:24:15.887Z,95711.34
2022-08-21T01:26:44.347Z,95705.63
2022-08-21T01:29:33.236Z,95714.13
2022-08-21T01:32:06.258Z,95701.69
2022-08-21T01:34:37.069Z,95706.72
2022-08-21T01:37:03.712Z,95701.09
2022-08-21T01:39:30.802Z,95695.16
2022-08-21T01:41:57.462Z,95697.16
2022-08-21T01:44:25.025Z,95683.19
2022-08-21T01:46:52.622Z,95697.97
2022-08-21T01:49:19.507Z,95691.81
2022-08-21T01:51:46.054Z,95682.84
2022-08-21T01:54:12.936Z,95684.63
2022-08-21T01:56:46.949Z,95682.03
2022-08-21T01:59:14.106Z,95681.81
2022-08-21T02:01:40.778Z,95684.03
2022-08-21T02:04:09.958Z,95683.91
2022-08-21T02:06:36.900Z,95677.97
2022-08-21T02:09:09.219Z,95682.06
2022-08-21T02:11:37.530Z,95675.28
2022-08-21T02:14:04.306Z,95669.47
2022-08-21T02:16:30.812Z,95673.56
2022-08-21T02:18:57.845Z,95679.13
2022-08-21T02:21:24.353Z,95676.91
2022-08-21T02:23:50.870Z,95672.72
2022-08-21T02:26:17.395Z,95671.81
2022-08-21T02:28:44.343Z,95674.69
2022-08-21T02:31:11.281Z,95668.41
2022-08-21T02:33:37.988Z,95667.25
2022-08-21T02:36:06.145Z,95665.63
2022-08-21T02:38:34.893Z,95666.09
2022-08-21T02:41:02.020Z,95668.31
2022-08-21T02:43:29.008Z,95666.13
2022-08-21T02:45:58.020Z,95661.69
2022-08-21T02:48:27.868Z,95662.03
2022-08-21T02:51:04.363Z,95669.47
2022-08-21T02:53:31.959Z,95661.44
2022-08-21T02:56:00.654Z,95667.38
2022-08-21T02:58:35.566Z,95665.75
2022-08-21T03:01:02.096Z,95665.75
2022-08-21T03:03:29.642Z,95669.13
2022-08-21T03:05:56.383Z,95665.88
2022-08-21T03:08:24.253Z,95665.88
2022-08-21T03:10:55.305Z,95668.88
2022-08-21T03:13:22.224Z,95663.78
2022-08-21T03:15:50.753Z,95662.41
2022-08-21T03:18:17.810Z,95656.00
2022-08-21T03:20:45.091Z,95657.03
2022-08-21T03:23:13.372Z,95660.78
2022-08-21T03:25:43.891Z,95657.03
2022-08-21T03:28:14.864Z,95645.75
2022-08-21T03:30:43.131Z,95658.09
2022-08-21T03:33:13.037Z,95652.63
2022-08-21T03:35:44.547Z,95651.44
2022-08-21T03:38:12.181Z,95649.25
2022-08-21T03:40:38.696Z,95657.97
2022-08-21T03:43:05.337Z,95652.28
2022-08-21T03:45:31.865Z,95663.44
2022-08-21T03:48:02.063Z,95652.28
2022-08-21T03:50:32.925Z,95658.34
2022-08-21T03:53:02.076Z,95660.66
2022-08-21T03:55:28.982Z,95657.41
2022-08-21T03:57:55.692Z,95662.00
2022-08-21T04:00:23.425Z,95667.00
2022-08-21T04:02:49.919Z,95671.09
2022-08-21T04:05:17.572Z,95667.13
2022-08-21T04:07:44.128Z,95662.97
2022-08-21T04:10:12.174Z,95669.09
2022-08-21T04:12:45.451Z,95673.16
2022-08-21T04:15:11.956Z,95659.69
2022-08-21T04:17:38.479Z,95666.22
2022-08-21T04:20:05.426Z,95663.41
2022-08-21T04:22:31.912Z,95664.91
2022-08-21T04:24:58.446Z,95664.31
2022-08-21T04:27:24.944Z,95667.69
2022-08-21T04:29:51.528Z,95657.25
2022-08-21T04:32:25.246Z,95666.16
2022-08-21T04:34:51.763Z,95661.28
2022-08-21T04:37:18.251Z,95663.41
2022-08-21T04:39:44.796Z,95668.00
2022-08-21T04:42:11.344Z,95665.94
2022-08-21T04:44:37.993Z,95667.00
2022-08-21T04:47:04.557Z,95660.81
2022-08-21T04:49:31.072Z,95664.53
2022-08-21T04:51:57.712Z,95669.78
2022-08-21T04:54:24.247Z,95669.19
2022-08-21T04:56:58.722Z,95673.13
2022-08-21T04:59:32.561Z,95671.28
2022-08-21T05:02:00.986Z,95669.19
2022-08-21T05:04:33.554Z,95667.09
2022-08-21T05:07:04.880Z,95667.22
2022-08-21T05:09:31.931Z,95665.22
2022-08-21T05:11:58.741Z,95664.28
2022-08-21T05:14:25.495Z,95664.75
2022-08-21T05:16:52.041Z,95671.41
2022-08-21T05:19:18.648Z,95668.75
2022-08-21T05:21:46.800Z,95667.56
2022-08-21T05:24:13.540Z,95665.38
2022-08-21T05:26:45.929Z,95671.63
2022-08-21T05:29:16.356Z,95664.88
2022-08-21T05:31:43.622Z,95667.25
2022-08-21T05:34:10.151Z,95662.69
2022-08-21T05:36:36.951Z,95666.91
2022-08-21T05:39:04.037Z,95667.34
2022-08-21T05:41:30.818Z,95661.91
2022-08-21T05:44:00.814Z,95669.00
2022-08-21T05:46:27.390Z,95672.88
2022-08-21T05:48:53.944Z,95664.25
2022-08-21T05:51:20.515Z,95665.44
2022-08-21T05:53:47.686Z,95660.19
2022-08-21T05:56:15.231Z,95649.09
2022-08-21T05:58:42.280Z,95652.72
2022-08-21T06:01:08.947Z,95656.25
2022-08-21T06:03:39.624Z,95657.41
2022-08-21T06:06:06.673Z,95656.47
2022-08-21T06:08:33.273Z,95667.03
2022-08-21T06:11:01.688Z,95663.19
2022-08-21T06:13:28.919Z,95659.13
2022-08-21T06:16:07.605Z,95653.06
2022-08-21T06:18:35.357Z,95652.38
2022-08-21T06:21:01.846Z,95649.91
2022-08-21T06:23:33.106Z,95655.63
2022-08-21T06:26:01.270Z,95650.22
2022-08-21T06:28:28.309Z,95652.53
2022-08-21T06:30:55.045Z,95649.16
2022-08-21T06:33:21.661Z,95658.22
2022-08-21T06:35:48.287Z,95651.44
2022-08-21T06:38:15.040Z,95648.84
2022-08-21T06:40:43.942Z,95646.34
2022-08-21T06:43:17.625Z,95643.19
2022-08-21T06:45:44.696Z,95656.88
2022-08-21T06:48:14.535Z,95657.03
2022-08-21T06:50:43.671Z,95650.72
2022-08-21T06:53:13.367Z,95646.03
2022-08-21T06:55:41.275Z,95651.50
2022-08-21T06:58:07.848Z,95651.56
2022-08-21T07:00:36.208Z,95649.44
2022-08-21T07:03:03.123Z,95656.38
2022-08-21T07:05:31.357Z,95653.03
2022-08-21T07:07:58.820Z,95649.06
2022-08-21T07:10:26.559Z,95651.16
2022-08-21T07:12:59.137Z,95647.50
2022-08-21T07:15:30.363Z,95656.78
2022-08-21T07:17:57.683Z,95662.16
2022-08-21T07:20:24.285Z,95663.28
2022-08-21T07:22:51.647Z,95664.97
2022-08-21T07:25:18.435Z,95660.75
2022-08-21T07:27:44.944Z,95661.16
2022-08-21T07:30:11.657Z,95670.75
2022-08-21T07:32:38.184Z,95665.53
2022-08-21T07:35:05.147Z,95661.94
2022-08-21T07:37:31.623Z,95666.44
2022-08-21T07:39:58.260Z,95667.50
2022-08-21T07:42:25.337Z,95671.31
2022-08-21T07:44:53.183Z,95671.88
2022-08-21T07:47:41.549Z,95674.00
2022-08-21T07:50:12.522Z,95673.44
2022-08-21T07:52:40.374Z,95668.94
2022-08-21T07:55:09.334Z,95665.72
2022-08-21T07:57:35.823Z,95667.16
2022-08-21T08:00:05.020Z,95669.97
2022-08-21T08:02:31.648Z,95665.56
2022-08-21T08:05:03.860Z,95667.56
2022-08-21T08:07:30.370Z,95661.19
2022-08-21T08:09:56.851Z,95666.47
2022-08-21T08:12:23.372Z,95658.00
2022-08-21T08:14:49.875Z,95654.25
2022-08-21T08:17:16.371Z,95658.25
2022-08-21T08:19:42.885Z,95654.75
2022-08-21T08:22:28.257Z,95652.69
2022-08-21T08:24:55.699Z,95644.00
2022-08-21T08:27:22.594Z,95641.94
2022-08-21T08:29:50.423Z,95640.66
2022-08-21T08:32:16.929Z,95641.75
2022-08-21T08:34:43.484Z,95645.53
2022-08-21T08:37:10.966Z,95645.91
2022-08-21T08:39:37.642Z,95651.22
2022-08-21T08:42:32.850Z,95646.84
2022-08-21T08:45:20.630Z,95649.28
2022-08-21T08:47:56.249Z,95658.53
2022-08-21T08:50:34.142Z,95631.50
2022-08-21T08:53:07.729Z,95623.44
2022-08-21T08:55:38.926Z,95628.56
2022-08-21T08:58:06.843Z,95618.31
2022-08-21T09:00:33.985Z,95616.84
2022-08-21T09:03:03.570Z,95614.25
2022-08-21T09:05:37.313Z,95620.59
2022-08-21T09:08:19.010Z,95613.28
2022-08-21T09:11:05.163Z,95618.19
2022-08-21T09:13:44.688Z,95617.06
2022-08-21T09:16:23.202Z,95607.72
2022-08-21T09:19:05.097Z,95607.06
2022-08-21T09:21:40.443Z,95608.69
2022-08-21T09:24:16.295Z,95600.88
2022-08-21T09:26:56.265Z,95603.00
2022-08-21T09:29:27.976Z,95599.66
2022-08-21T09:31:54.509Z,95603.59
2022-08-21T09:34:28.394Z,95603.09
2022-08-21T09:36:55.333Z,95600.53
2022-08-21T09:39:28.487Z,95596.78
2022-08-21T09:42:02.474Z,95597.97
2022-08-21T09:44:31.957Z,95590.75
2022-08-21T09:46:58.872Z,95590.91
2022-08-21T09:49:30.829Z,95590.75
2022-08-21T09:52:00.230Z,95584.22
2022-08-21T09:54:32.211Z,95581.44
2022-08-21T09:57:24.689Z,95576.03
2022-08-21T09:59:51.204Z,95576.19
2022-08-21T10:02:33.387Z,95583.81
2022-08-21T10:05:02.532Z,95579.81
2022-08-21T10:07:32.160Z,95572.50
2022-08-21T10:10:15.620Z,95580.84
2022-08-21T10:12:50.827Z,95577.34
2022-08-21T10:15:27.823Z,95577.03
2022-08-21T10:18:14.839Z,95566.28
2022-08-21T10:20:50.685Z,95565.81
2022-08-21T10:23:37.361Z,95567.44
2022-08-21T10:26:19.694Z,95567.47
2022-08-21T10:29:07.610Z,95556.88
2022-08-21T10:32:26.374Z,95560.69
2022-08-21T10:35:00.764Z,95554.97
2022-08-21T10:38:05.904Z,95554.94
2022-08-21T10:40:59.429Z,95553.13
2022-08-21T10:43:52.387Z,95550.50
2022-08-21T10:46:37.651Z,95538.50
2022-08-21T10:49:12.152Z,95541.47
2022-08-21T10:51:45.303Z,95546.88
2022-08-21T10:54:52.010Z,95537.63
2022-08-21T10:57:39.417Z,95524.19
2022-08-21T11:00:15.273Z,95525.53
2022-08-21T11:02:58.044Z,95533.50
2022-08-21T11:05:36.594Z,95531.09
2022-08-21T11:08:08.382Z,95523.03
2022-08-21T11:10:51.305Z,95522.03
2022-08-21T11:13:39.597Z,95524.91
2022-08-21T11:16:29.024Z,95522.44
2022-08-21T11:19:18.401Z,95523.03
2022-08-21T11:22:09.421Z,95517.09
2022-08-21T11:24:47.708Z,95519.41
2022-08-21T11:27:26.217Z,95514.59
2022-08-21T11:29:59.786Z,95514.09
2022-08-21T11:32:55.000Z,95506.47
2022-08-21T11:35:31.334Z,95508.31
2022-08-21T11:37:57.860Z,95505.41
2022-08-21T11:40:42.345Z,95508.84
2022-08-21T11:43:23.056Z,95501.03
2022-08-21T11:46:00.516Z,95499.78
2022-08-21T11:48:47.569Z,95502.94
2022-08-21T11:51:27.342Z,95493.34
2022-08-21T11:54:39.132Z,95494.16
2022-08-21T11:57:17.730Z,95491.81
2022-08-21T11:59:57.916Z,95489.25
2022-08-21T12:02:35.580Z,95486.06
2022-08-21T12:05:10.415Z,95483.59
2022-08-21T12:07:45.653Z,95484.44
2022-08-21T12:10:20.000Z,95486.56
2022-08-21T12:12:46.497Z,95489.84
2022-08-21T12:15:22.143Z,95492.56
2022-08-21T12:18:00.861Z,95478.84
2022-08-21T12:20:58.719Z,95488.28
2022-08-21T12:23:44.852Z,95466.72
2022-08-21T12:26:24.181Z,95471.00
2022-08-21T12:28:50.951Z,95465.91
2022-08-21T12:31:50.548Z,95471.88
2022-08-21T12:34:19.337Z,95464.28
2022-08-21T12:36:55.479Z,95462.97
2022-08-21T12:39:27.493Z,95469.16
2022-08-21T12:42:05.466Z,95469.41
2022-08-21T12:44:47.049Z,95472.81
2022-08-21T12:47:22.870Z,95468.53
2022-08-21T12:50:02.968Z,95470.34
2022-08-21T12:52:52.117Z,95473.97
2022-08-21T12:55:28.637Z,95472.88
2022-08-21T12:57:55.229Z,95466.31
2022-08-21T13:00:25.772Z,95457.25
2022-08-21T13:02:55.200Z,95458.81
2022-08-21T13:05:35.313Z,95460.75
2022-08-21T13:08:08.283Z,95465.94
2022-08-21T13:10:37.416Z,95465.75
2022-08-21T13:13:12.380Z,95459.97
2022-08-21T13:15:42.145Z,95450.97
2022-08-21T13:18:25.967Z,95451.03
2022-08-21T13:21:03.404Z,95450.81
2022-08-21T13:23:31.128Z,95451.44
2022-08-21T13:25:58.351Z,95442.22
2022-08-21T13:28:34.033Z,95446.84
2022-08-21T13:31:01.028Z,95441.63
2022-08-21T13:33:34.766Z,95437.03
2022-08-21T13:36:25.998Z,95442.91
2022-08-21T13:38:54.473Z,95451.50
2022-08-21T13:41:29.807Z,95442.03
2022-08-21T13:44:04.459Z,95445.00
2022-08-21T13:46:35.275Z,95439.00
2022-08-21T13:49:06.442Z,95434.38
2022-08-21T13:51:34.420Z,95427.06
2022-08-21T13:54:01.106Z,95425.94
2022-08-21T13:56:31.650Z,95412.88
2022-08-21T13:59:00.414Z,95417.81
2022-08-21T14:01:32.647Z,95408.53
2022-08-21T14:04:24.265Z,95424.28
2022-08-21T14:06:52.112Z,95423.31
2022-08-21T14:09:35.832Z,95422.91
2022-08-21T14:12:38.868Z,95429.03
2022-08-21T14:15:07.365Z,95419.97
2022-08-21T14:17:39.086Z,95424.00
2022-08-21T14:20:11.183Z,95409.56
2022-08-21T14:22:41.531Z,95414.66
2022-08-21T14:25:18.814Z,95413.06
2022-08-21T14:27:54.665Z,95415.88
2022-08-21T14:30:37.595Z,95410.81
2022-08-21T14:33:11.246Z,95405.31
2022-08-21T14:35:37.865Z,95413.66
2022-08-21T14:38:20.749Z,95402.09
2022-08-21T14:40:51.158Z,95412.44
2022-08-21T14:43:19.336Z,95412.75
2022-08-21T14:45:47.286Z,95408.81
2022-08-21T14:48:13.820Z,95403.78
2022-08-21T14:50:40.439Z,95404.53
2022-08-21T14:53:10.909Z,95397.16
2022-08-21T14:55:39.918Z,95401.22
2022-08-21T14:58:07.444Z,95394.63
2022-08-21T15:00:36.121Z,95398.16
2022-08-21T15:03:03.267Z,95386.22
2022-08-21T15:05:33.698Z,95392.63
2022-08-21T15:08:01.036Z,95405.22
2022-08-21T15:10:28.607Z,95394.94
2022-08-21T15:12:55.880Z,95392.38
2022-08-21T15:15:22.396Z,95392.97
2022-08-21T15:17:48.894Z,95392.97
2022-08-21T15:20:15.470Z,95395.53
2022-08-21T15:22:42.044Z,95389.00
2022-08-21T15:25:14.629Z,95384.63
2022-08-21T15:27:41.294Z,95395.50
2022-08-21T15:30:08.215Z,95396.31
2022-08-21T15:32:34.720Z,95382.31
2022-08-21T15:35:01.258Z,95388.81
2022-08-21T15:37:27.805Z,95386.88
2022-08-21T15:39:54.491Z,95380.13
2022-08-21T15:42:22.273Z,95373.25
2022-08-21T15:44:49.372Z,95371.19
2022-08-21T15:47:20.336Z,95366.13
2022-08-21T15:49:46.942Z,95360.41
2022-08-21T15:52:20.327Z,95371.66
2022-08-21T15:54:47.613Z,95368.56
2022-08-21T15:57:18.270Z,95370.25
2022-08-21T15:59:52.953Z,95371.34
2022-08-21T16:02:30.140Z,95370.84
2022-08-21T16:04:57.737Z,95365.13
2022-08-21T16:07:24.951Z,95368.66
2022-08-21T16:09:51.708Z,95369.75
2022-08-21T16:12:24.987Z,95369.00
2022-08-21T16:14:53.879Z,95373.06
2022-08-21T16:17:25.781Z,95367.00
2022-08-21T16:19:52.317Z,95372.69
2022-08-21T16:22:18.882Z,95364.09
2022-08-21T16:24:45.589Z,95365.34
2022-08-21T16:27:12.767Z,95364.91
2022-08-21T16:29:40.680Z,95359.50
2022-08-21T16:32:08.477Z,95359.75
2022-08-21T16:34:36.234Z,95364.25
2022-08-21T16:37:02.735Z,95352.31
2022-08-21T16:39:29.329Z,95359.44
2022-08-21T16:41:56.044Z,95359.31
2022-08-21T16:44:22.637Z,95358.50
2022-08-21T16:46:49.600Z,95354.88
2022-08-21T16:49:16.122Z,95352.41
2022-08-21T16:51:42.623Z,95361.69
2022-08-21T16:54:09.896Z,95362.72
2022-08-21T16:56:39.758Z,95366.06
2022-08-21T16:59:07.377Z,95361.22
2022-08-21T17:01:36.366Z,95365.69
2022-08-21T17:04:03.468Z,95356.97
2022-08-21T17:06:30.038Z,95361.09
2022-08-21T17:08:57.757Z,95363.09
2022-08-21T17:11:37.048Z,95365.13
2022-08-21T17:14:14.570Z,95364.69
2022-08-21T17:16:45.724Z,95359.28
2022-08-21T17:19:12.991Z,95360.78
2022-08-21T17:21:39.641Z,95353.66
2022-08-21T17:24:06.202Z,95354.25
2022-08-21T17:26:33.312Z,95365.81
2022-08-21T17:29:00.012Z,95363.28
2022-08-21T17:31:32.275Z,95365.78
2022-08-21T17:33:58.780Z,95363.38
2022-08-21T17:36:28.073Z,95370.84
2022-08-21T17:38:55.234Z,95363.78
2022-08-21T17:41:21.993Z,95370.38
2022-08-21T17:43:50.103Z,95374.22
2022-08-21T17:46:22.336Z,95380.41
2022-08-21T17:48:48.957Z,95372.72
2022-08-21T17:51:15.797Z,95376.38
2022-08-21T17:53:42.307Z,95368.16
2022-08-21T17:56:09.484Z,95375.41
2022-08-21T17:58:37.098Z,95376.59
2022-08-21T18:01:04.688Z,95382.06
2022-08-21T18:03:32.093Z,95389.59
2022-08-21T18:06:03.892Z,95396.53
2022-08-21T18:08:30.419Z,95401.13
2022-08-21T18:10:56.924Z,95394.66
2022-08-21T18:13:36.644Z,95392.97
2022-08-21T18:16:04.096Z,95398.41
2022-08-21T18:18:40.891Z,95398.75
2022-08-21T18:21:08.315Z,95402.25
2022-08-21T18:23:44.498Z,95397.06
2022-08-21T18:26:15.553Z,95400.81
2022-08-21T18:28:42.966Z,95404.91
2022-08-21T18:31:11.867Z,95398.97
2022-08-21T18:33:52.907Z,95406.56
2022-08-21T18:36:26.538Z,95400.75
2022-08-21T18:38:53.704Z,95406.38
2022-08-21T18:41:20.844Z,95403.63
2022-08-21T18:43:47.954Z,95407.25
2022-08-21T18:46:14.971Z,95408.66
2022-08-21T18:48:42.836Z,95412.19
2022-08-21T18:51:09.549Z,95408.31
2022-08-21T18:53:37.248Z,95413.38
2022-08-21T18:56:05.856Z,95415.63
2022-08-21T18:58:33.870Z,95417.53
2022-08-21T19:01:00.837Z,95416.06
2022-08-21T19:03:27.585Z,95411.50
2022-08-21T19:05:54.930Z,95416.63
2022-08-21T19:08:24.220Z,95412.44
2022-08-21T19:10:56.822Z,95423.94
2022-08-21T19:13:25.252Z,95413.44
2022-08-21T19:15:52.956Z,95417.81
2022-08-21T19:18:28.338Z,95434.19
2022-08-21T19:20:57.396Z,95435.66
2022-08-21T19:23:28.997Z,95439.25
2022-08-21T19:26:00.856Z,95442.34
2022-08-21T19:28:27.575Z,95435.78
2022-08-21T19:31:06.355Z,95438.53
2022-08-21T19:33:41.073Z,95434.66
2022-08-21T19:36:12.831Z,95431.72
2022-08-21T19:38:41.334Z,95430.69
2022-08-21T19:41:11.633Z,95432.94
2022-08-21T19:43:44.827Z,95425.28
2022-08-21T19:46:15.508Z,95432.34
2022-08-21T19:48:43.585Z,95434.31
2022-08-21T19:51:13.393Z,95427.16
2022-08-21T19:53:39.911Z,95428.38
2022-08-21T19:56:12.231Z,95426.34
2022-08-21T19:58:40.759Z,95430.22
2022-08-21T20:01:11.503Z,95436.63
2022-08-21T20:03:43.953Z,95427.81
2022-08-21T20:06:10.982Z,95427.50
2022-08-21T20:08:37.908Z,95420.59
2022-08-21T20:11:05.435Z,95426.34
2022-08-21T20:13:33.449Z,95422.03
2022-08-21T20:16:02.110Z,95419.88
2022-08-21T20:18:32.473Z,95421.50
2022-08-21T20:20:59.096Z,95420.66
2022-08-21T20:23:29.968Z,95433.00
2022-08-21T20:25:58.834Z,95422.03
2022-08-21T20:28:27.060Z,95426.19
2022-08-21T20:30:55.589Z,95419.03
2022-08-21T20:33:22.575Z,95424.06
2022-08-21T20:35:49.985Z,95425.94
2022-08-21T20:38:16.805Z,95424.50
2022-08-21T20:40:47.634Z,95425.03
2022-08-21T20:43:14.669Z,95419.88
2022-08-21T20:45:41.953Z,95422.13
2022-08-21T20:48:26.319Z,95434.63
2022-08-21T20:51:05.151Z,95426.84
2022-08-21T20:53:50.265Z,95427.19
2022-08-21T20:56:31.957Z,95436.25
2022-08-21T20:59:22.200Z,95436.72
2022-08-21T21:01:55.469Z,95432.59
2022-08-21T21:04:34.125Z,95430.88
2022-08-21T21:07:06.561Z,95428.28
2022-08-21T21:09:45.952Z,95428.94
2022-08-21T21:12:27.762Z,95430.88
2022-08-21T21:15:00.990Z,95434.75
2022-08-21T21:17:37.145Z,95432.19
2022-08-21T21:20:14.389Z,95435.94
2022-08-21T21:22:58.011Z,95430.00
2022-08-21T21:25:40.716Z,95438.34
2022-08-21T21:28:18.448Z,95446.56
2022-08-21T21:30:52.024Z,95448.28
2022-08-21T21:33:24.874Z,95453.44
2022-08-21T21:35:59.517Z,95451.88
2022-08-21T21:38:39.536Z,95452.66
2022-08-21T21:41:18.315Z,95439.97
2022-08-21T21:44:07.429Z,95442.06
2022-08-21T21:46:55.024Z,95442.94
2022-08-21T21:50:02.916Z,95428.00
2022-08-21T21:52:43.504Z,95430.56
2022-08-21T21:55:25.245Z,95436.38
2022-08-21T21:58:17.017Z,95439.00
2022-08-21T22:00:52.416Z,95434.13
2022-08-21T22:03:59.161Z,95439.75
2022-08-21T22:06:59.910Z,95440.69
2022-08-21T22:09:53.853Z,95450.09
2022-08-21T22:12:50.010Z,95440.69
2022-08-21T22:15:31.789Z,95436.28
2022-08-21T22:18:11.514Z,95427.22
2022-08-21T22:21:07.302Z,95435.53
2022-08-21T22:23:42.263Z,95438.75
2022-08-21T22:26:15.142Z,95438.81
2022-08-21T22:28:46.548Z,95436.22
2022-08-21T22:31:18.091Z,95433.50
2022-08-21T22:34:05.006Z,95437.88
2022-08-21T22:36:40.552Z,95434.81
2022-08-21T22:39:38.847Z,95443.31
2022-08-21T22:42:21.584Z,95439.81
2022-08-21T22:45:01.633Z,95439.25
2022-08-21T22:47:39.734Z,95434.94
2022-08-21T22:50:26.334Z,95440.94
2022-08-21T22:53:01.481Z,95438.25
2022-08-21T22:55:39.223Z,95441.19
2022-08-21T22:58:22.490Z,95429.63
2022-08-21T23:00:52.016Z,95420.00
2022-08-21T23:03:26.405Z,95420.00
2022-08-21T23:06:00.020Z,95420.00
2022-08-21T23:08:34.636Z,95425.06
2022-08-21T23:11:43.009Z,95421.63
2022-08-21T23:17:21.162Z,95430.63
2022-08-21T23:20:01.498Z,95433.09
2022-08-21T23:22:55.528Z,95440.38
2022-08-21T23:25:37.032Z,95446.53
2022-08-21T23:28:12.479Z,95437.06
2022-08-21T23:31:38.800Z,95438.75
2022-08-21T23:34:06.338Z,95445.75
2022-08-21T23:36:59.824Z,95442.50
2022-08-21T23:40:06.406Z,95440.28
2022-08-21T23:43:00.105Z,95441.31
2022-08-21T23:46:13.486Z,95435.03
2022-08-21T23:52:19.165Z,95440.09
2022-08-21T23:55:02.273Z,95435.72
2022-08-21T23:57:46.984Z,95439.69
